Time;durP1;ratioP1;P1;durP2;ratioP2;P2;SDS_P1;SDS_P2;PMS_P1;PMS_P2;Temp;Humidity;BMP_temperature;BMP_pressure;BME280_temperature;BME280_humidity;BME280_pressure;Samples;Min_cycle;Max_cycle;Signal;HPM_P1;HPM_P2
2023/10/11 00:01:11;;;;;;;13.10;4.40;;;;;;;17.81;81.23;101146.91;10492371;28;20063;-66
2023/10/11 00:06:14;;;;;;;10.00;4.25;;;;;;;17.81;82.44;101146.91;10490260;28;20043;-66
2023/10/11 00:11:20;;;;;;;14.50;4.60;;;;;;;17.79;82.26;101147.00;10489010;28;20060;-67
2023/10/11 00:16:22;;;;;;;11.60;4.43;;;;;;;17.78;82.03;101147.09;10490240;28;20036;-66
2023/10/11 00:21:40;;;;;;;9.32;4.15;;;;;;;17.76;82.82;101143.72;10486124;28;20567;-66
2023/10/11 00:26:44;;;;;;;11.05;4.50;;;;;;;17.69;83.25;101142.34;10482427;28;20055;-66
2023/10/11 00:31:45;;;;;;;8.60;4.72;;;;;;;17.68;83.37;101135.41;10482326;28;20527;-66
2023/10/11 00:36:49;;;;;;;8.32;4.28;;;;;;;17.66;82.44;101142.50;10481007;28;20056;-66
2023/10/11 00:41:53;;;;;;;9.90;5.13;;;;;;;17.67;83.06;101138.97;10479376;28;20118;-67
2023/10/11 00:46:59;;;;;;;11.25;4.65;;;;;;;17.67;82.68;101139.78;10486958;28;20044;-66
2023/10/11 00:52:06;;;;;;;12.27;4.63;;;;;;;17.66;83.29;101142.50;10481847;28;20075;-66
2023/10/11 00:57:08;;;;;;;15.38;5.53;;;;;;;17.64;82.88;101144.34;10481469;28;20102;-66
2023/10/11 01:02:14;;;;;;;9.25;5.22;;;;;;;17.65;83.49;101146.88;10488654;28;20052;-66
2023/10/11 01:07:17;;;;;;;10.20;5.20;;;;;;;17.59;82.94;101128.06;10482271;28;20044;-66
2023/10/11 01:12:19;;;;;;;11.63;5.03;;;;;;;17.60;84.32;101132.38;10485841;28;20044;-66
2023/10/11 01:17:20;;;;;;;8.85;5.28;;;;;;;17.58;84.13;101139.47;10487479;28;20047;-66
2023/10/11 01:22:22;;;;;;;13.20;5.68;;;;;;;17.60;84.04;101133.22;10482998;28;20087;-66
2023/10/11 01:27:30;;;;;;;13.05;6.25;;;;;;;17.62;84.94;101120.03;10476042;28;20036;-66
2023/10/11 01:32:34;;;;;;;10.68;5.50;;;;;;;17.58;84.14;101124.59;10483644;28;20045;-65
2023/10/11 01:37:43;;;;;;;13.93;5.95;;;;;;;17.57;84.27;101122.91;10475029;28;20091;-66
2023/10/11 01:42:49;;;;;;;11.43;5.72;;;;;;;17.54;84.56;101114.38;10486301;28;20081;-66
2023/10/11 01:47:56;;;;;;;13.18;5.60;;;;;;;17.49;85.18;101109.38;10476013;28;20124;-66
2023/10/11 01:52:58;;;;;;;13.57;5.40;;;;;;;17.48;85.05;101106.84;10481428;28;20174;-66
2023/10/11 01:58:00;;;;;;;10.80;5.63;;;;;;;17.44;85.14;101094.81;10490363;28;20045;-66
2023/10/11 02:03:03;;;;;;;15.05;6.15;;;;;;;17.44;84.97;101094.81;10483700;28;20049;-66
2023/10/11 02:08:13;;;;;;;13.13;6.20;;;;;;;17.42;85.57;101099.28;10456789;28;20095;-66
2023/10/11 02:13:15;;;;;;;18.70;6.35;;;;;;;17.37;85.78;101096.09;10478894;28;20045;-65
2023/10/11 02:18:17;;;;;;;14.35;6.18;;;;;;;17.39;86.02;101084.63;10492592;28;20095;-65
2023/10/11 02:23:19;;;;;;;11.02;6.18;;;;;;;17.38;86.12;101087.34;10481097;28;20515;-66
2023/10/11 02:28:21;;;;;;;12.15;6.43;;;;;;;17.36;86.24;101081.34;10478867;28;20049;-66
2023/10/11 02:33:24;;;;;;;11.52;6.30;;;;;;;17.38;85.75;101076.88;10475659;28;20060;-66
2023/10/11 02:38:26;;;;;;;16.45;6.68;;;;;;;17.36;85.82;101070.88;10466181;28;20446;-66
2023/10/11 02:43:27;;;;;;;12.63;6.38;;;;;;;17.36;85.96;101057.78;10479588;28;20044;-66
2023/10/11 02:48:29;;;;;;;15.80;6.72;;;;;;;17.29;86.02;101061.66;10482767;28;20081;-65
2023/10/11 02:53:36;;;;;;;15.13;6.97;;;;;;;17.27;86.26;101059.09;10482350;28;20431;-65
2023/10/11 02:58:40;;;;;;;18.00;7.03;;;;;;;17.24;85.87;101050.59;10480200;28;20056;-65
2023/10/11 03:03:43;;;;;;;13.43;6.35;;;;;;;17.21;86.17;101053.38;10481160;28;20044;-65
2023/10/11 03:08:45;;;;;;;15.48;7.00;;;;;;;17.19;86.55;101043.00;10476693;28;20044;-66
2023/10/11 03:13:47;;;;;;;14.48;6.78;;;;;;;17.19;86.51;101039.53;10497080;28;20047;-66
2023/10/11 03:18:50;;;;;;;14.20;6.70;;;;;;;17.18;86.20;101027.41;10480529;28;20051;-66
2023/10/11 03:23:55;;;;;;;13.77;6.57;;;;;;;17.16;86.20;101021.41;10485895;28;20044;-66
2023/10/11 03:29:05;;;;;;;16.90;6.85;;;;;;;17.10;86.33;101018.16;10483061;28;20040;-66
2023/10/11 03:34:19;;;;;;;14.57;6.93;;;;;;;17.08;86.66;101004.31;10482610;28;20047;-66
2023/10/11 03:39:28;;;;;;;13.90;6.20;;;;;;;17.04;86.58;101010.66;10486525;28;20051;-66
2023/10/11 03:44:35;;;;;;;16.52;7.13;;;;;;;17.03;86.69;101021.22;10480446;28;20045;-66
2023/10/11 03:54:45;;;;;;;16.92;7.60;;;;;;;17.02;86.67;101024.75;10486449;28;20046;-66
2023/10/11 03:59:51;;;;;;;16.08;7.03;;;;;;;16.98;86.85;101011.00;10491166;28;20413;-66
2023/10/11 04:04:54;;;;;;;16.42;7.03;;;;;;;16.96;87.25;100994.53;10486777;28;20106;-66
2023/10/11 04:10:04;;;;;;;17.60;7.10;;;;;;;16.95;87.26;100987.63;10494677;28;20037;-66
2023/10/11 04:15:17;;;;;;;21.05;7.28;;;;;;;16.94;86.78;100991.16;10491024;28;20081;-66
2023/10/11 04:20:29;;;;;;;22.65;7.85;;;;;;;16.97;87.49;101006.69;10487634;28;20420;-66
2023/10/11 04:25:32;;;;;;;17.60;6.88;;;;;;;16.91;87.37;101012.25;10490352;28;20105;-66
2023/10/11 04:30:44;;;;;;;13.88;7.05;;;;;;;16.93;86.70;101014.78;10490010;28;20044;-66
2023/10/11 04:35:55;;;;;;;14.15;6.43;;;;;;;16.90;87.22;101013.16;10492463;28;20151;-66
2023/10/11 04:41:02;;;;;;;15.40;7.55;;;;;;;16.88;87.20;101007.16;10485497;28;20500;-66
2023/10/11 04:46:07;;;;;;;13.00;6.72;;;;;;;16.85;87.35;101006.47;10490633;28;20080;-66
2023/10/11 05:06:53;;;;;;;14.02;6.35;;;;;;;16.82;87.16;100996.19;10483445;28;20051;-66
2023/10/11 05:11:58;;;;;;;13.30;6.80;;;;;;;16.83;87.81;100990.03;10486232;28;20040;-66
2023/10/11 05:23:05;;;;;;;16.55;6.43;;;;;;;16.83;87.70;100996.13;10487046;28;20040;-66
2023/10/11 05:27:47;;;;;;;17.73;7.13;;;;;;;16.80;87.70;101021.56;10468922;28;20051;-66
2023/10/11 05:32:49;;;;;;;20.13;7.15;;;;;;;16.80;88.09;101009.34;10480478;28;20074;-66
2023/10/11 05:53:59;;;;;;;17.45;7.00;;;;;;;16.75;87.88;100984.38;10482431;28;20466;-66
2023/10/11 05:59:11;;;;;;;15.05;6.88;;;;;;;16.76;88.18;100989.53;10475555;28;20055;-66
2023/10/11 06:04:14;;;;;;;15.95;6.88;;;;;;;16.79;88.44;101001.59;10508552;28;20122;-65
2023/10/11 06:09:26;;;;;;;20.10;6.95;;;;;;;16.76;87.63;101018.28;10480388;28;20131;-66
2023/10/11 06:14:29;;;;;;;15.32;6.55;;;;;;;16.81;87.90;101008.41;10475669;28;20048;-66
2023/10/11 06:19:32;;;;;;;14.52;6.80;;;;;;;16.84;87.92;101000.44;10481364;28;20041;-66
2023/10/11 06:24:33;;;;;;;18.25;6.88;;;;;;;16.84;87.73;101002.19;10485203;28;20517;-66
2023/10/11 06:29:37;;;;;;;30.95;7.20;;;;;;;16.85;87.97;101017.78;10497729;28;20028;-66
2023/10/11 06:34:39;;;;;;;15.30;6.50;;;;;;;16.88;87.68;101014.19;10487251;28;20701;-66
2023/10/11 06:44:54;;;;;;;17.38;6.90;;;;;;;16.94;87.97;101014.69;10488568;28;20049;-66
2023/10/11 06:49:56;;;;;;;15.98;6.68;;;;;;;16.98;87.64;101013.59;10472055;28;20041;-66
2023/10/11 06:55:13;;;;;;;15.48;6.97;;;;;;;17.00;87.81;101011.75;10487107;28;20135;-66
2023/10/11 07:00:53;;;;;;;16.63;7.25;;;;;;;17.01;87.63;101002.97;10480406;28;20045;-66
2023/10/11 07:05:46;;;;;;;18.60;7.22;;;;;;;17.03;87.84;101031.69;10484345;28;20048;-66
2023/10/11 07:16:08;;;;;;;20.08;7.40;;;;;;;17.10;87.84;101028.63;10482122;28;20504;-66
2023/10/11 07:21:10;;;;;;;19.15;7.95;;;;;;;17.13;87.75;101022.41;10495330;28;20040;-66
2023/10/11 07:31:32;;;;;;;14.40;7.88;;;;;;;17.20;87.77;101025.50;10490763;28;20052;-66
2023/10/11 07:36:38;;;;;;;17.95;7.88;;;;;;;17.21;87.88;101024.59;10481812;28;20048;-66
2023/10/11 07:41:42;;;;;;;;;;;;;;;17.21;88.21;101035.91;10489320;28;20074;-66
2023/10/11 07:46:47;;;;;;;16.33;7.97;;;;;;;17.27;87.99;101045.22;10485203;28;19921;-66
2023/10/11 07:51:53;;;;;;;21.77;8.95;;;;;;;17.32;87.87;101037.94;10490162;28;20044;-67
2023/10/11 07:56:58;;;;;;;24.92;9.00;;;;;;;17.39;88.27;101040.16;10485113;28;20144;-66
2023/10/11 08:02:08;;;;;;;;;;;;;;;17.42;88.09;101026.03;10484265;28;20076;-65
2023/10/11 08:07:13;;;;;;;23.77;9.60;;;;;;;17.45;88.16;101028.50;10477921;28;19920;-66
2023/10/11 08:12:18;;;;;;;18.40;9.23;;;;;;;17.51;88.58;101036.03;10490923;28;20044;-66
2023/10/11 08:17:21;;;;;;;21.40;8.90;;;;;;;17.53;88.54;101029.78;10491822;28;20135;-66
2023/10/11 08:22:22;;;;;;;17.00;8.82;;;;;;;17.55;88.54;101034.94;10479398;28;20044;-66
2023/10/11 08:32:31;;;;;;;21.80;9.60;;;;;;;17.63;89.26;101040.59;10485595;28;20533;-66
2023/10/11 08:37:34;;;;;;;17.90;9.10;;;;;;;17.64;89.08;101018.72;10484990;28;20342;-66
2023/10/11 08:42:37;;;;;;;21.80;9.20;;;;;;;17.68;89.01;101015.84;10477632;28;20052;-66
2023/10/11 08:47:45;;;;;;;24.83;9.57;;;;;;;17.71;89.12;101009.59;10479931;28;20043;-66
2023/10/11 08:52:47;;;;;;;23.83;9.73;;;;;;;17.72;89.22;101008.66;10484702;28;20594;-66
2023/10/11 08:57:49;;;;;;;25.50;10.88;;;;;;;17.76;89.25;101016.25;10479447;28;20052;-66
2023/10/11 09:02:54;;;;;;;23.17;9.73;;;;;;;17.79;89.32;101002.16;10486983;28;20132;-66
2023/10/11 09:07:56;;;;;;;24.85;10.55;;;;;;;17.79;89.21;101003.00;10457818;28;20041;-65
2023/10/11 09:12:59;;;;;;;24.20;10.80;;;;;;;17.85;89.43;101007.03;10471316;28;20139;-66
2023/10/11 09:18:15;;;;;;;26.88;11.10;;;;;;;17.84;90.02;101002.72;10480700;28;20063;-66
2023/10/11 09:23:38;;;;;;;23.05;10.80;;;;;;;17.85;90.70;101013.13;10480729;28;20044;-66
2023/10/11 09:28:46;;;;;;;22.63;10.88;;;;;;;17.87;90.75;101013.88;10483062;28;20044;-66
2023/10/11 09:33:59;;;;;;;23.58;11.18;;;;;;;17.85;91.19;101041.94;10483497;28;20047;-66
2023/10/11 09:39:04;;;;;;;24.70;11.02;;;;;;;17.85;91.35;101054.19;10474714;28;20041;-66
2023/10/11 09:44:10;;;;;;;24.50;12.80;;;;;;;17.85;91.28;101059.41;10477108;28;20535;-65
2023/10/11 09:49:12;;;;;;;25.00;12.40;;;;;;;17.81;91.68;101058.75;10502904;28;20107;-66
2023/10/11 09:54:14;;;;;;;22.85;13.00;;;;;;;17.81;92.01;101071.84;10478419;28;20053;-66
2023/10/11 09:59:34;;;;;;;27.90;13.85;;;;;;;17.77;93.24;101072.94;10475978;28;20075;-66
2023/10/11 10:04:51;;;;;;;28.15;13.20;;;;;;;17.73;93.82;101078.41;10474877;28;20480;-66
2023/10/11 10:09:59;;;;;;;24.85;13.93;;;;;;;17.62;94.63;101088.63;10476031;28;20040;-65
2023/10/11 10:15:07;;;;;;;25.65;13.93;;;;;;;17.60;95.13;101100.97;10496842;28;20052;-66
2023/10/11 10:20:43;;;;;;;31.27;16.30;;;;;;;17.56;97.32;101115.16;10484177;28;20045;-66
2023/10/11 10:26:06;;;;;;;29.80;15.23;;;;;;;17.44;98.59;101111.38;10490065;28;20063;-66
2023/10/11 10:31:16;;;;;;;29.98;15.27;;;;;;;17.41;99.01;101110.69;10486290;28;20039;-66
2023/10/11 10:36:21;;;;;;;30.63;16.02;;;;;;;17.40;99.64;101115.09;10482835;28;20052;-66
2023/10/11 10:41:27;;;;;;;26.10;15.40;;;;;;;17.39;100.00;101117.78;10483391;28;20033;-66
2023/10/11 10:46:30;;;;;;;33.30;16.20;;;;;;;17.34;100.00;101110.16;10489504;28;20397;-66
2023/10/11 10:51:35;;;;;;;35.83;17.85;;;;;;;17.29;100.00;101100.91;10493156;28;20044;-66
2023/10/11 10:56:37;;;;;;;34.63;17.10;;;;;;;17.28;100.00;101093.97;10481533;28;20770;-67
2023/10/11 11:01:39;;;;;;;32.55;16.83;;;;;;;17.27;100.00;101098.34;10483829;28;20730;-66
2023/10/11 11:06:46;;;;;;;32.08;17.40;;;;;;;17.32;100.00;101109.44;10483887;28;20050;-66
2023/10/11 11:11:53;;;;;;;31.95;16.83;;;;;;;17.30;100.00;101095.59;10487304;28;20052;-66
2023/10/11 11:17:00;;;;;;;29.65;17.42;;;;;;;17.33;100.00;101092.78;10458258;28;20045;-66
2023/10/11 11:22:12;;;;;;;32.45;16.92;;;;;;;17.35;100.00;101074.41;10477968;28;20685;-66
2023/10/11 11:27:25;;;;;;;31.25;16.83;;;;;;;17.41;100.00;101074.94;10485299;28;20055;-66
2023/10/11 11:32:37;;;;;;;37.15;17.67;;;;;;;17.47;100.00;101063.28;10488586;28;20409;-67
2023/10/11 11:38:02;;;;;;;27.80;16.55;;;;;;;17.53;100.00;101042.03;10483014;28;20040;-67
2023/10/11 11:43:04;;;;;;;37.20;16.48;;;;;;;17.54;100.00;101048.97;10482332;28;20103;-67
2023/10/11 11:48:05;;;;;;;28.58;16.42;;;;;;;17.66;100.00;101048.25;10469074;28;20048;-67
2023/10/11 11:53:07;;;;;;;33.00;15.63;;;;;;;17.75;100.00;101037.28;10491383;28;20048;-67
2023/10/11 11:58:16;;;;;;;29.38;14.80;;;;;;;17.89;100.00;101013.81;10487839;28;20044;-67
2023/10/11 12:03:18;;;;;;;25.13;14.90;;;;;;;18.06;100.00;101000.56;10486445;28;20052;-67
2023/10/11 12:08:20;;;;;;;25.80;14.48;;;;;;;18.22;100.00;100990.03;10484918;28;20049;-67
2023/10/11 12:13:25;;;;;;;27.63;13.57;;;;;;;18.31;99.78;100985.09;10488528;28;20401;-67
2023/10/11 12:18:33;;;;;;;20.63;12.13;;;;;;;18.39;98.81;100995.97;10489034;28;20102;-66
2023/10/11 12:23:35;;;;;;;25.17;12.37;;;;;;;18.45;98.29;100997.41;10480690;28;20045;-66
2023/10/11 12:28:37;;;;;;;18.33;11.60;;;;;;;18.46;98.06;101004.34;10464214;28;20043;-66
2023/10/11 12:33:39;;;;;;;22.40;10.68;;;;;;;18.49;97.88;101015.50;10479596;28;20052;-66
2023/10/11 12:38:41;;;;;;;26.67;10.90;;;;;;;18.53;96.96;101011.72;10482873;28;20779;-66
2023/10/11 12:43:45;;;;;;;16.95;9.95;;;;;;;18.61;96.18;101012.13;10486237;28;20044;-66
2023/10/11 12:48:54;;;;;;;18.88;9.50;;;;;;;18.65;95.86;101002.28;10480971;28;20043;-66
2023/10/11 12:53:57;;;;;;;22.10;9.77;;;;;;;18.72;95.22;101012.31;10478152;28;20647;-66
2023/10/11 12:58:59;;;;;;;20.02;9.55;;;;;;;18.78;94.34;101011.97;10483366;28;20044;-66
2023/10/11 13:04:10;;;;;;;20.20;8.70;;;;;;;18.82;94.45;100991.63;10477258;28;20049;-66
2023/10/11 13:09:15;;;;;;;17.27;8.60;;;;;;;18.86;94.15;100996.56;10482329;28;20044;-66
2023/10/11 13:14:20;;;;;;;15.93;8.38;;;;;;;18.89;94.09;101006.03;10486411;28;20088;-66
2023/10/11 13:19:24;;;;;;;20.63;8.27;;;;;;;18.95;94.08;100992.56;10478932;28;20049;-66
2023/10/11 13:24:27;;;;;;;19.58;8.40;;;;;;;18.97;93.69;100986.25;10489928;28;20053;-66
2023/10/11 13:29:29;;;;;;;15.45;8.18;;;;;;;19.08;93.48;100983.00;10488853;28;20049;-66
2023/10/11 13:34:33;;;;;;;15.93;7.53;;;;;;;19.12;93.48;100983.66;10499842;28;20132;-66
2023/10/11 13:39:39;;;;;;;18.65;7.80;;;;;;;19.12;92.94;100991.50;10483335;28;20090;-67
2023/10/11 13:44:43;;;;;;;13.18;7.55;;;;;;;19.10;93.39;100983.72;10481334;28;20048;-66
2023/10/11 13:49:47;;;;;;;19.52;8.02;;;;;;;19.08;93.45;100983.81;10482879;28;20041;-66
2023/10/11 13:54:51;;;;;;;15.52;8.02;;;;;;;19.11;93.23;100976.69;10478758;28;20078;-66
2023/10/11 13:59:54;;;;;;;14.27;6.93;;;;;;;19.14;93.32;100955.53;10486990;28;20040;-66
2023/10/11 14:04:58;;;;;;;20.20;7.75;;;;;;;19.18;92.58;100946.50;10496642;28;20062;-66
2023/10/11 14:10:08;;;;;;;14.98;7.07;;;;;;;19.21;92.79;100956.81;10487778;28;20597;-66
2023/10/11 14:15:18;;;;;;;13.93;6.57;;;;;;;19.23;92.66;100944.44;10491568;28;20044;-66
2023/10/11 14:20:21;;;;;;;15.50;6.97;;;;;;;19.40;92.24;100952.09;10480495;28;20116;-66
2023/10/11 14:25:26;;;;;;;13.23;6.63;;;;;;;19.42;91.96;100934.47;10462617;28;20057;-66
2023/10/11 14:30:29;;;;;;;14.65;6.88;;;;;;;19.44;91.93;100933.44;10459694;28;20044;-66
2023/10/11 14:35:31;;;;;;;17.23;7.05;;;;;;;19.45;92.00;100908.03;10484438;28;20086;-66
2023/10/11 14:40:35;;;;;;;16.55;7.07;;;;;;;19.49;92.06;100915.59;10463735;28;20116;-66
2023/10/11 14:45:37;;;;;;;20.35;6.95;;;;;;;19.52;91.76;100910.13;10478279;28;20048;-66
2023/10/11 14:50:42;;;;;;;18.85;7.32;;;;;;;19.60;91.32;100907.84;10476614;28;20141;-66
2023/10/11 14:55:44;;;;;;;17.00;7.43;;;;;;;19.53;92.01;100896.09;10481585;28;20054;-66
2023/10/11 15:00:46;;;;;;;20.55;8.50;;;;;;;19.47;92.03;100891.22;10478074;28;20387;-66
2023/10/11 15:05:48;;;;;;;18.23;8.55;;;;;;;19.46;92.40;100904.47;10492147;28;20143;-66
2023/10/11 15:10:50;;;;;;;18.95;8.27;;;;;;;19.45;92.43;100892.28;10485239;28;20484;-66
2023/10/11 15:15:51;;;;;;;19.60;8.90;;;;;;;19.43;93.12;100899.41;10492031;28;20081;-66
2023/10/11 15:20:53;;;;;;;18.92;9.23;;;;;;;19.45;92.38;100897.53;10483904;28;20542;-66
2023/10/11 15:25:55;;;;;;;21.10;9.05;;;;;;;19.40;93.00;100905.69;10489333;28;20162;-66
2023/10/11 15:31:00;;;;;;;18.33;9.38;;;;;;;19.43;92.93;100904.66;10494452;28;20044;-66
2023/10/11 15:36:01;;;;;;;17.00;9.05;;;;;;;19.41;92.83;100890.81;10477291;28;20061;-66
2023/10/11 15:41:05;;;;;;;18.27;9.57;;;;;;;19.38;93.02;100901.47;10488720;28;20366;-66
2023/10/11 15:46:09;;;;;;;17.27;9.40;;;;;;;19.30;93.40;100894.06;10482600;28;20048;-66
2023/10/11 15:51:15;;;;;;;21.73;9.07;;;;;;;19.30;93.36;100903.75;10489868;28;20037;-66
2023/10/11 15:56:17;;;;;;;20.00;9.45;;;;;;;19.27;93.75;100909.16;10486001;28;20044;-66
2023/10/11 16:01:19;;;;;;;19.85;10.10;;;;;;;19.25;93.78;100904.03;10491356;28;20362;-66
2023/10/11 16:06:24;;;;;;;21.60;9.45;;;;;;;19.20;93.96;100903.50;10485306;28;20041;-66
2023/10/11 16:11:30;;;;;;;25.17;10.63;;;;;;;19.16;94.31;100903.78;10485090;28;20120;-66
2023/10/11 16:16:35;;;;;;;21.10;9.38;;;;;;;19.14;94.47;100900.44;10463513;28;20044;-66
2023/10/11 16:21:40;;;;;;;21.83;10.02;;;;;;;19.10;94.32;100898.94;10481030;28;20055;-66
2023/10/11 16:26:42;;;;;;;21.90;9.83;;;;;;;19.06;94.79;100901.75;10480907;28;20080;-66
2023/10/11 16:31:43;;;;;;;19.00;10.05;;;;;;;19.03;95.08;100917.69;10491987;28;20036;-66
2023/10/11 16:36:45;;;;;;;20.88;10.30;;;;;;;19.02;95.11;100910.78;10484382;28;20465;-66
2023/10/11 16:41:47;;;;;;;23.63;10.10;;;;;;;19.02;94.75;100895.03;10483131;28;20048;-66
2023/10/11 16:46:49;;;;;;;23.63;9.68;;;;;;;18.99;95.03;100868.97;10487724;28;20102;-66
2023/10/11 16:51:51;;;;;;;20.92;9.98;;;;;;;18.97;95.29;100870.84;10482149;28;20499;-66
2023/10/11 16:56:53;;;;;;;21.25;10.00;;;;;;;18.95;95.81;100885.84;10483464;28;20056;-66
2023/10/11 17:01:56;;;;;;;16.52;9.55;;;;;;;18.91;96.30;100902.75;10482299;28;20474;-66
2023/10/11 17:07:00;;;;;;;24.50;9.35;;;;;;;18.89;96.18;100907.22;10474377;28;20049;-66
2023/10/11 17:12:01;;;;;;;18.10;9.05;;;;;;;18.92;96.15;100919.28;10464528;28;20068;-66
2023/10/11 17:17:03;;;;;;;15.32;8.93;;;;;;;18.91;96.23;100918.47;10485252;28;20053;-66
2023/10/11 17:22:05;;;;;;;18.52;8.77;;;;;;;18.92;96.27;100914.91;10512851;28;20502;-65
2023/10/11 17:27:07;;;;;;;19.65;8.57;;;;;;;18.92;96.54;100912.28;10481637;28;20058;-65
2023/10/11 17:32:08;;;;;;;17.33;8.15;;;;;;;18.85;97.24;100903.13;10479465;28;20208;-66
2023/10/11 17:37:10;;;;;;;17.65;8.70;;;;;;;18.88;97.24;100896.84;10477185;28;20075;-66
2023/10/11 17:42:12;;;;;;;20.70;9.00;;;;;;;18.82;97.87;100877.09;10484534;28;20572;-66
2023/10/11 17:47:14;;;;;;;20.58;8.98;;;;;;;18.79;97.55;100898.25;10492949;28;20028;-66
2023/10/11 17:52:16;;;;;;;19.17;9.52;;;;;;;18.77;97.28;100910.59;10485912;28;20041;-66
2023/10/11 17:57:17;;;;;;;23.02;9.45;;;;;;;18.77;97.48;100894.88;10478292;28;20056;-66
2023/10/11 18:02:23;;;;;;;18.08;8.50;;;;;;;18.77;97.36;100894.06;10489459;28;20235;-66
2023/10/11 18:07:24;;;;;;;;;;;;;;;18.78;97.87;100896.56;10485157;28;20052;-66
2023/10/11 18:12:26;;;;;;;21.25;9.77;;;;;;;18.75;97.65;100881.00;10488692;28;19963;-66
2023/10/11 18:17:28;;;;;;;22.73;9.93;;;;;;;18.75;98.08;100886.25;10477684;28;20196;-66
2023/10/11 18:22:29;;;;;;;22.65;9.60;;;;;;;18.74;97.72;100889.84;10482182;28;20056;-66
2023/10/11 18:27:31;;;;;;;20.85;10.07;;;;;;;18.74;97.71;100895.06;10479780;28;20048;-66
2023/10/11 18:32:35;;;;;;;18.15;9.88;;;;;;;18.72;98.17;100885.63;10478917;28;20087;-66
2023/10/11 18:37:37;;;;;;;24.95;10.30;;;;;;;18.69;97.90;100868.31;10486628;28;20056;-66
2023/10/11 18:42:39;;;;;;;22.17;10.43;;;;;;;18.64;98.39;100845.94;10486615;28;20094;-66
2023/10/11 18:47:43;;;;;;;22.48;11.95;;;;;;;18.60;99.15;100858.41;10489739;28;20052;-66
2023/10/11 18:52:46;;;;;;;27.63;12.23;;;;;;;18.57;100.00;100863.81;10487565;28;20495;-66
2023/10/11 18:57:51;;;;;;;24.15;12.93;;;;;;;18.50;100.00;100874.78;10489627;28;20052;-67
2023/10/11 19:02:54;;;;;;;29.00;13.27;;;;;;;18.49;100.00;100881.81;10500084;28;20044;-67
2023/10/11 19:07:57;;;;;;;25.13;14.07;;;;;;;18.41;100.00;100891.03;10486815;28;20068;-67
2023/10/11 19:12:59;;;;;;;29.63;15.00;;;;;;;18.39;100.00;100898.16;10489038;28;20504;-67
2023/10/11 19:18:05;;;;;;;28.55;14.80;;;;;;;18.35;100.00;100889.63;10490404;28;20143;-67
2023/10/11 19:23:08;;;;;;;27.08;15.45;;;;;;;18.32;100.00;100881.97;10491927;28;20036;-67
2023/10/11 19:28:10;;;;;;;23.25;15.52;;;;;;;18.36;100.00;100872.13;10490822;28;20571;-67
2023/10/11 19:33:12;;;;;;;30.98;16.02;;;;;;;18.39;100.00;100891.13;10488648;28;20044;-68
2023/10/11 19:38:17;;;;;;;32.10;16.58;;;;;;;18.35;100.00;100884.38;10490616;28;20059;-68
2023/10/11 19:43:18;;;;;;;36.85;17.92;;;;;;;18.34;100.00;100898.44;10487073;28;20054;-67
2023/10/11 19:48:20;;;;;;;42.63;19.23;;;;;;;18.19;100.00;100896.75;10484447;28;20068;-67
2023/10/11 19:53:22;;;;;;;45.40;20.83;;;;;;;18.06;100.00;100911.50;10476332;28;20131;-65
2023/10/11 19:58:24;;;;;;;48.53;21.65;;;;;;;17.93;100.00;100914.00;10495580;28;20048;-65
2023/10/11 20:03:28;;;;;;;41.10;20.90;;;;;;;17.81;100.00;100891.19;10482224;28;20114;-65
2023/10/11 20:08:30;;;;;;;30.02;15.23;;;;;;;17.72;100.00;100906.56;10485014;28;20066;-66
2023/10/11 20:13:34;;;;;;;21.67;7.82;;;;;;;17.43;100.00;100884.69;10481664;28;20041;-65
2023/10/11 20:18:35;;;;;;;17.70;5.18;;;;;;;17.25;100.00;100874.41;10483980;28;20492;-64
2023/10/11 20:23:37;;;;;;;14.82;4.97;;;;;;;17.14;100.00;100882.03;10483724;28;20049;-64
2023/10/11 20:28:39;;;;;;;15.30;5.10;;;;;;;17.09;100.00;100895.34;10484786;28;20048;-65
2023/10/11 20:33:42;;;;;;;17.63;5.03;;;;;;;17.08;100.00;100884.03;10484816;28;20048;-65
2023/10/11 20:38:44;;;;;;;16.17;5.07;;;;;;;17.07;100.00;100871.03;10478663;28;20056;-65
2023/10/11 20:43:46;;;;;;;20.35;5.00;;;;;;;17.07;100.00;100871.03;10476076;28;21915;-65
2023/10/11 20:48:48;;;;;;;20.15;5.50;;;;;;;17.07;100.00;100860.59;10485619;28;20073;-65
2023/10/11 20:53:50;;;;;;;14.82;5.75;;;;;;;17.08;100.00;100876.19;10490842;28;20470;-65
2023/10/11 20:58:55;;;;;;;20.48;6.72;;;;;;;17.06;100.00;100867.59;10489214;28;20043;-65
2023/10/11 21:03:57;;;;;;;18.53;5.97;;;;;;;17.07;100.00;100871.03;10498041;28;20408;-65
2023/10/11 21:08:59;;;;;;;18.92;6.80;;;;;;;17.06;100.00;100844.06;10486435;28;20442;-65
2023/10/11 21:14:01;;;;;;;20.02;6.97;;;;;;;17.06;100.00;100851.91;10479636;28;20110;-65
2023/10/11 21:19:04;;;;;;;21.55;7.20;;;;;;;17.04;100.00;100845.94;10483327;28;20044;-66
2023/10/11 21:24:07;;;;;;;27.58;7.82;;;;;;;17.06;100.00;100856.31;10489902;28;20044;-65
2023/10/11 21:29:10;;;;;;;19.02;8.10;;;;;;;17.05;100.00;100863.28;10499988;28;20396;-65
2023/10/11 21:34:12;;;;;;;28.83;9.43;;;;;;;17.06;100.00;100849.31;10481147;28;20048;-65
2023/10/11 21:39:18;;;;;;;25.45;9.27;;;;;;;17.07;100.00;100855.34;10478757;28;20148;-65
2023/10/11 21:44:20;;;;;;;24.60;10.05;;;;;;;17.12;100.00;100860.34;10486961;28;20044;-64
2023/10/11 21:49:24;;;;;;;26.25;10.48;;;;;;;17.16;100.00;100864.47;10483869;28;20047;-65
2023/10/11 21:54:28;;;;;;;29.88;12.88;;;;;;;17.16;100.00;100872.31;10478135;28;20440;-65
2023/10/11 21:59:29;;;;;;;37.53;14.43;;;;;;;17.17;100.00;100871.38;10479678;28;20049;-65
2023/10/11 22:04:31;;;;;;;33.08;14.38;;;;;;;17.17;100.00;100876.59;10470905;28;20051;-65
2023/10/11 22:09:33;;;;;;;16.73;7.07;;;;;;;17.08;100.00;100901.50;10485221;28;20044;-65
2023/10/11 22:14:34;;;;;;;13.45;4.43;;;;;;;16.82;100.00;100918.63;10477570;28;20056;-65
2023/10/11 22:19:36;;;;;;;7.57;3.10;;;;;;;16.58;100.00;100899.03;10470459;28;20045;-65
2023/10/11 22:24:38;;;;;;;5.45;1.80;;;;;;;16.36;100.00;100908.91;10477129;28;20137;-64
2023/10/11 22:29:40;;;;;;;2.60;1.10;;;;;;;16.09;100.00;100920.78;10487339;28;20040;-64
2023/10/11 22:34:43;;;;;;;3.78;1.00;;;;;;;15.98;100.00;100929.16;10474593;28;20760;-64
2023/10/11 22:39:45;;;;;;;3.13;1.15;;;;;;;15.81;100.00;100923.09;10480870;28;20134;-65
2023/10/11 22:44:47;;;;;;;1.95;0.60;;;;;;;15.74;100.00;100913.88;10483412;28;20497;-65
2023/10/11 22:49:49;;;;;;;1.85;0.93;;;;;;;15.72;100.00;100928.78;10482927;28;20047;-65
2023/10/11 22:54:50;;;;;;;6.43;1.02;;;;;;;15.73;100.00;100944.34;10479508;28;20040;-65
2023/10/11 22:59:54;;;;;;;3.75;0.90;;;;;;;15.69;100.00;100932.41;10479915;28;20131;-65
2023/10/11 23:04:56;;;;;;;2.65;1.00;;;;;;;15.68;100.00;100929.84;10473364;28;20147;-65
2023/10/11 23:09:58;;;;;;;3.53;1.00;;;;;;;15.69;100.00;100952.41;10483805;28;20106;-65
2023/10/11 23:15:07;;;;;;;3.97;1.05;;;;;;;15.69;100.00;100935.00;10476995;28;20086;-65
2023/10/11 23:20:17;;;;;;;3.13;1.02;;;;;;;15.70;100.00;100941.91;10477831;28;20045;-65
2023/10/11 23:25:28;;;;;;;4.47;0.85;;;;;;;15.79;100.00;100938.81;10483252;28;20051;-65
2023/10/11 23:30:29;;;;;;;6.85;1.00;;;;;;;15.78;100.00;100931.94;10489655;28;20041;-65
2023/10/11 23:35:35;;;;;;;1.95;1.00;;;;;;;15.78;100.00;100946.75;10489641;28;20048;-66
2023/10/11 23:40:47;;;;;;;2.95;0.70;;;;;;;15.79;100.00;100948.41;10489813;28;20036;-65
2023/10/11 23:45:53;;;;;;;4.38;0.93;;;;;;;15.78;100.00;100972.84;10488903;28;20040;-65
2023/10/11 23:50:55;;;;;;;7.63;1.10;;;;;;;15.77;100.00;100977.19;10489677;28;20052;-66
2023/10/11 23:55:57;;;;;;;5.50;1.00;;;;;;;15.64;100.00;100983.09;10483474;28;20045;-65
